Rechercher aéroport 
image banner adimage banner adimage banner ad
image banner ad

2CL6 - St John's Rgnl Medical Center

Situé à Oxnard, United States

ICAO - 2CL6, IATA -

Données fournies par Airmate  

Information générale

Coordonnées: N34°12'60" W119°9'26"
Élévation : 76 feet MSL.
Variation magnétique : 14° East
Voir autres Aéroports à California

Données opérationnelles

Special qualification required
Heure actuelle UTC:
Heure actuelle locale:
Météo à : KOXR - Oxnard ( 5 km )
METAR: KOXR 231451Z 34004KT 3SM BR OVC003 15/14 A2993 RMK AO2 SLP135 T01500139 53002
TAF: KOXR 231304Z 2313/2412 27006KT 5SM BR OVC004 FM231600 27007KT P6SM OVC008 FM231800 27012KT P6SM SKC FM240200 27007KT P6SM BKN009 FM240800 VRB03KT 6SM BR OVC007
Voir NOTAMs / SUP AIP / TFR affectant cet aéroport [VIEW]
Fréquences de communication: [VIEW]

Pistes:

Coordonnées de l'aéroport

Adresse: Oxnard United States

Vue satellite de 2CL6